Time;durP1;ratioP1;P1;durP2;ratioP2;P2;SDS_P1;SDS_P2;PMS_P1;PMS_P2;Temp;Humidity;BMP_temperature;BMP_pressure;BME280_temperature;BME280_humidity;BME280_pressure;Samples;Min_cycle;Max_cycle;Signal;HPM_P1;HPM_P2
2024/05/03 00:01:31;;;;;;;5.30;3.53;;;22.70;99.90;;;;;;5347263;26;20001;-54
2024/05/03 00:03:57;;;;;;;6.93;4.45;;;22.70;99.90;;;;;;5347626;26;20008;-55
2024/05/03 00:06:23;;;;;;;6.53;3.65;;;22.60;99.90;;;;;;5347466;26;19997;-55
2024/05/03 00:08:48;;;;;;;7.13;4.03;;;22.60;99.90;;;;;;5347354;26;20001;-54
2024/05/03 00:11:14;;;;;;;6.22;3.90;;;22.60;99.90;;;;;;5347263;26;20008;-54
2024/05/03 00:13:40;;;;;;;6.85;4.13;;;22.60;99.90;;;;;;5347568;26;20001;-56
2024/05/03 00:16:06;;;;;;;6.15;4.07;;;22.60;99.90;;;;;;5347438;26;20012;-56
2024/05/03 00:18:31;;;;;;;7.00;3.95;;;22.60;99.90;;;;;;5347134;26;20135;-56
2024/05/03 00:20:57;;;;;;;6.07;3.78;;;22.60;99.90;;;;;;5347370;26;20038;-55
2024/05/03 00:23:23;;;;;;;7.25;4.13;;;22.60;99.90;;;;;;5347181;26;20336;-55
2024/05/03 00:25:49;;;;;;;6.32;3.83;;;22.60;99.90;;;;;;5347126;26;20510;-55
2024/05/03 00:28:15;;;;;;;6.18;3.78;;;22.60;99.90;;;;;;5347201;26;20433;-56
2024/05/03 00:30:40;;;;;;;6.88;3.83;;;22.60;99.90;;;;;;5345635;26;20448;-56
2024/05/03 00:33:06;;;;;;;6.85;3.40;;;22.50;99.90;;;;;;5346578;26;20012;-55
2024/05/03 00:35:32;;;;;;;5.95;3.97;;;22.50;99.90;;;;;;5346611;26;20008;-55
2024/05/03 00:37:58;;;;;;;7.97;4.32;;;22.50;99.90;;;;;;5346927;26;20000;-55
2024/05/03 00:40:23;;;;;;;8.07;4.15;;;22.60;99.90;;;;;;5345327;26;20008;-56
2024/05/03 00:42:49;;;;;;;5.50;3.75;;;22.60;99.90;;;;;;5345447;26;20007;-56
2024/05/03 00:45:15;;;;;;;5.95;4.18;;;22.50;99.90;;;;;;5346901;26;20007;-56
2024/05/03 00:47:41;;;;;;;6.07;4.10;;;22.60;99.90;;;;;;5347204;26;20000;-56
2024/05/03 00:50:09;;;;;;;7.10;3.88;;;22.50;99.90;;;;;;5346938;26;20012;-56
2024/05/03 00:52:36;;;;;;;6.25;3.75;;;22.60;99.90;;;;;;5346852;26;20036;-56
2024/05/03 00:55:02;;;;;;;7.45;4.10;;;22.50;99.90;;;;;;5346974;26;20060;-57
2024/05/03 00:57:29;;;;;;;5.63;3.47;;;22.50;99.90;;;;;;5346656;26;20015;-56
2024/05/03 00:59:56;;;;;;;5.30;3.63;;;22.50;99.90;;;;;;5346720;26;20016;-56
2024/05/03 01:02:22;;;;;;;5.25;3.38;;;22.50;99.90;;;;;;5390228;21;20078;-53
2024/05/03 01:04:47;;;;;;;6.25;3.17;;;22.50;99.90;;;;;;5381928;26;19996;-51
2024/05/03 01:07:13;;;;;;;6.72;3.58;;;22.50;99.90;;;;;;5382072;26;20000;-53
2024/05/03 01:09:39;;;;;;;4.97;3.53;;;22.50;99.90;;;;;;5409415;26;20008;-53
2024/05/03 01:12:05;;;;;;;6.63;3.65;;;22.50;99.90;;;;;;5381733;26;19992;-53
2024/05/03 01:14:31;;;;;;;5.28;3.28;;;22.50;99.90;;;;;;5381701;26;19992;-53
2024/05/03 01:16:57;;;;;;;4.78;2.95;;;22.50;99.90;;;;;;5381479;26;19992;-53
2024/05/03 01:19:23;;;;;;;6.93;3.17;;;22.50;99.90;;;;;;5381520;26;20007;-53
2024/05/03 01:21:59;;;;;;;6.68;3.83;;;22.40;99.90;;;;;;5380158;26;20007;-53
2024/05/03 01:24:24;;;;;;;4.28;2.90;;;22.40;99.90;;;;;;5409621;26;20000;-53
2024/05/03 01:26:51;;;;;;;5.18;3.15;;;22.40;99.90;;;;;;5381578;26;20467;-53
2024/05/03 01:29:17;;;;;;;5.03;3.20;;;22.40;99.90;;;;;;5381422;26;20008;-53
2024/05/03 01:31:42;;;;;;;4.28;2.83;;;22.40;99.90;;;;;;5381541;26;20010;-53
2024/05/03 01:34:08;;;;;;;5.47;2.45;;;22.40;99.90;;;;;;5381313;26;20011;-50
2024/05/03 01:36:34;;;;;;;5.85;2.72;;;22.40;99.90;;;;;;5380913;26;20011;-50
2024/05/03 01:39:00;;;;;;;4.78;2.80;;;22.40;99.90;;;;;;5381341;26;20000;-51
2024/05/03 01:41:29;;;;;;;4.05;2.92;;;22.40;99.90;;;;;;5379377;26;20044;-51
2024/05/03 01:43:55;;;;;;;5.47;2.90;;;22.40;99.90;;;;;;5408590;26;19996;-51
2024/05/03 01:46:21;;;;;;;4.68;2.90;;;22.40;99.90;;;;;;5379753;26;20015;-51
2024/05/03 01:48:47;;;;;;;3.90;2.80;;;22.40;99.90;;;;;;5381199;26;20003;-51
2024/05/03 01:51:13;;;;;;;4.63;3.08;;;22.40;99.90;;;;;;5381370;26;20011;-51
2024/05/03 01:53:39;;;;;;;4.55;2.50;;;22.30;99.90;;;;;;5379266;26;19997;-51
2024/05/03 01:56:05;;;;;;;4.60;3.05;;;22.40;99.90;;;;;;5379031;26;20006;-51
2024/05/03 01:58:31;;;;;;;4.60;2.55;;;22.30;99.90;;;;;;5380116;26;19992;-51
2024/05/03 02:00:56;;;;;;;4.25;2.53;;;22.30;99.90;;;;;;5381141;26;20007;-51
2024/05/03 02:03:22;;;;;;;4.53;2.60;;;22.30;99.90;;;;;;5380937;26;19992;-51
2024/05/03 02:05:48;;;;;;;4.25;2.80;;;22.30;99.90;;;;;;5408841;26;20000;-51
2024/05/03 02:08:14;;;;;;;3.88;2.42;;;22.30;99.90;;;;;;5380999;26;20405;-51
2024/05/03 02:10:40;;;;;;;4.10;2.70;;;22.30;99.90;;;;;;5380694;26;19992;-51
2024/05/03 02:13:05;;;;;;;3.95;2.40;;;22.30;99.90;;;;;;5380684;26;19996;-50
2024/05/03 02:15:31;;;;;;;4.05;2.40;;;22.30;99.90;;;;;;5380542;26;20007;-50
2024/05/03 02:17:57;;;;;;;3.75;2.45;;;22.30;99.90;;;;;;5380674;26;19992;-51
2024/05/03 02:20:22;;;;;;;3.60;2.25;;;22.30;99.90;;;;;;5380482;26;20093;-51
2024/05/03 02:22:48;;;;;;;3.40;1.98;;;22.30;99.90;;;;;;5380849;26;20004;-51
2024/05/03 02:25:14;;;;;;;3.67;2.35;;;22.30;99.90;;;;;;5380761;26;19992;-51
2024/05/03 02:27:40;;;;;;;2.85;2.05;;;22.30;99.90;;;;;;5380630;26;20004;-51
2024/05/03 02:30:06;;;;;;;3.95;2.17;;;22.30;99.90;;;;;;5380601;26;19996;-51
2024/05/03 02:32:32;;;;;;;3.92;2.03;;;22.20;99.90;;;;;;5378692;26;20416;-51
2024/05/03 02:34:58;;;;;;;3.28;1.88;;;22.20;99.90;;;;;;5380358;26;19996;-50
2024/05/03 02:37:24;;;;;;;3.50;2.28;;;22.20;99.90;;;;;;5380166;26;20004;-51
2024/05/03 02:39:49;;;;;;;3.83;2.40;;;22.20;99.90;;;;;;5380540;26;20494;-51
2024/05/03 02:42:15;;;;;;;3.50;2.20;;;22.20;99.90;;;;;;5380497;26;20004;-51
2024/05/03 02:44:41;;;;;;;3.58;2.20;;;22.20;99.90;;;;;;5380215;26;19992;-51
2024/05/03 02:47:07;;;;;;;3.47;2.00;;;22.20;99.90;;;;;;5380456;26;20007;-51
2024/05/03 02:49:33;;;;;;;3.85;1.95;;;22.20;99.90;;;;;;5379888;26;20000;-51
2024/05/03 02:51:58;;;;;;;3.63;1.95;;;22.20;99.90;;;;;;5380054;26;20328;-52
2024/05/03 02:54:24;;;;;;;3.60;1.90;;;22.20;99.90;;;;;;5407841;26;20340;-52
2024/05/03 02:56:51;;;;;;;3.30;1.75;;;22.20;99.90;;;;;;5408627;26;20366;-52
2024/05/03 02:59:17;;;;;;;2.90;1.67;;;22.10;99.90;;;;;;5383589;26;20004;-52
2024/05/03 03:01:48;;;;;;;2.97;1.65;;;22.20;99.90;;;;;;5383953;26;19996;-52
2024/05/03 03:04:14;;;;;;;4.13;1.90;;;22.20;99.90;;;;;;5383624;26;20028;-52
2024/05/03 03:06:40;;;;;;;2.83;1.70;;;22.20;99.90;;;;;;5383680;26;19996;-52
2024/05/03 03:09:06;;;;;;;2.55;1.65;;;22.20;99.90;;;;;;5383091;26;20011;-52
2024/05/03 03:11:33;;;;;;;3.05;1.85;;;22.10;99.90;;;;;;5411105;26;20011;-52
2024/05/03 03:13:59;;;;;;;2.27;1.67;;;22.10;99.90;;;;;;5383259;26;20011;-52
2024/05/03 03:16:32;;;;;;;5.28;2.08;;;22.10;99.90;;;;;;5411375;26;19999;-51
2024/05/03 03:18:58;;;;;;;5.78;2.08;;;22.10;99.90;;;;;;5383268;26;19996;-51
2024/05/03 03:21:24;;;;;;;2.70;1.60;;;22.10;99.90;;;;;;5381212;26;20007;-52
2024/05/03 03:23:50;;;;;;;1.60;0.93;;;22.10;99.90;;;;;;5383198;26;20012;-52
2024/05/03 03:26:16;;;;;;;3.45;1.55;;;22.10;99.90;;;;;;5382889;26;19996;-52
2024/05/03 03:28:42;;;;;;;2.78;1.48;;;22.10;99.90;;;;;;5383039;26;20000;-52
2024/05/03 03:31:08;;;;;;;3.63;1.85;;;22.10;99.90;;;;;;5382920;26;20015;-51
2024/05/03 03:33:37;;;;;;;2.10;1.50;;;22.10;99.90;;;;;;5382651;26;20007;-51
2024/05/03 03:36:03;;;;;;;2.55;1.50;;;22.10;99.90;;;;;;5382944;26;20329;-52
2024/05/03 03:38:28;;;;;;;2.40;1.58;;;22.00;99.90;;;;;;5410502;26;20006;-52
2024/05/03 03:40:54;;;;;;;4.05;1.75;;;22.10;99.90;;;;;;5383241;26;20114;-52
2024/05/03 03:43:20;;;;;;;2.90;1.42;;;22.00;99.90;;;;;;5381500;26;20420;-52
2024/05/03 03:45:46;;;;;;;2.05;1.23;;;22.10;99.90;;;;;;5380737;26;20444;-52
2024/05/03 03:48:15;;;;;;;4.68;1.88;;;22.00;99.90;;;;;;5382763;26;20010;-52
2024/05/03 03:50:41;;;;;;;2.78;1.23;;;22.00;99.90;;;;;;5410525;26;20008;-52
2024/05/03 03:53:07;;;;;;;2.47;1.30;;;22.00;99.90;;;;;;5375393;26;19993;-52
2024/05/03 03:55:32;;;;;;;2.35;1.20;;;22.00;99.90;;;;;;5378770;26;20052;-52
2024/05/03 03:57:58;;;;;;;2.53;1.10;;;22.00;99.90;;;;;;5382427;26;19996;-53
2024/05/03 04:00:27;;;;;;;3.08;1.50;;;22.00;99.90;;;;;;5383044;26;20007;-52
2024/05/03 04:02:53;;;;;;;1.85;0.88;;;22.00;99.90;;;;;;5383134;26;20011;-52
2024/05/03 04:05:19;;;;;;;2.92;1.38;;;22.00;99.90;;;;;;5382664;26;20336;-52
2024/05/03 04:07:45;;;;;;;2.53;1.35;;;22.00;99.90;;;;;;5382332;26;20032;-52
2024/05/03 04:10:11;;;;;;;2.83;1.40;;;22.00;99.90;;;;;;5381545;26;19996;-52
2024/05/03 04:12:37;;;;;;;2.08;0.90;;;22.00;99.90;;;;;;5382271;26;20007;-52
2024/05/03 04:15:07;;;;;;;2.47;1.38;;;22.00;99.90;;;;;;5382598;26;20012;-52
2024/05/03 04:17:32;;;;;;;2.10;1.02;;;21.90;99.90;;;;;;5382431;26;20412;-52
2024/05/03 04:19:58;;;;;;;2.20;1.25;;;22.00;99.90;;;;;;5382386;26;20007;-52
2024/05/03 04:22:24;;;;;;;2.22;1.10;;;22.00;99.90;;;;;;5382489;26;20348;-52
2024/05/03 04:24:50;;;;;;;2.95;0.90;;;21.90;99.90;;;;;;5382182;26;20007;-52
2024/05/03 04:27:15;;;;;;;3.42;1.20;;;21.90;99.90;;;;;;5382212;26;20011;-52
2024/05/03 04:29:41;;;;;;;2.00;0.98;;;21.90;99.90;;;;;;5382259;26;20077;-52
2024/05/03 04:32:07;;;;;;;1.85;0.88;;;21.90;99.90;;;;;;5382221;26;20002;-52
2024/05/03 04:34:33;;;;;;;1.35;0.95;;;21.90;99.90;;;;;;5382149;26;20444;-53
2024/05/03 04:36:58;;;;;;;3.72;1.10;;;21.90;99.90;;;;;;5382073;26;20011;-53
2024/05/03 04:39:24;;;;;;;2.53;0.90;;;21.90;99.90;;;;;;5382230;26;20006;-52
2024/05/03 04:41:50;;;;;;;1.60;1.00;;;21.90;99.90;;;;;;5382277;26;19996;-52
2024/05/03 04:44:15;;;;;;;4.53;1.02;;;21.90;99.90;;;;;;5381855;26;19996;-53
2024/05/03 04:46:41;;;;;;;7.78;1.38;;;21.90;99.90;;;;;;5381870;26;20074;-53
2024/05/03 04:49:07;;;;;;;2.88;0.93;;;21.90;99.90;;;;;;5381643;26;20008;-52
2024/05/03 04:51:40;;;;;;;1.75;1.05;;;21.90;99.90;;;;;;5381948;26;20411;-53
2024/05/03 04:54:06;;;;;;;2.97;0.88;;;21.90;99.90;;;;;;5381917;26;20008;-52
2024/05/03 04:56:32;;;;;;;1.67;1.10;;;21.90;99.90;;;;;;5409749;26;20432;-51
2024/05/03 04:58:58;;;;;;;2.58;1.10;;;21.90;99.90;;;;;;5381436;26;20073;-52
2024/05/03 05:01:24;;;;;;;2.75;1.23;;;21.90;99.90;;;;;;5381562;26;20007;-51
2024/05/03 05:03:53;;;;;;;2.92;1.23;;;21.90;99.90;;;;;;5381833;26;19996;-51
2024/05/03 05:06:18;;;;;;;1.80;0.88;;;21.90;99.90;;;;;;5381570;26;20333;-52
2024/05/03 05:08:44;;;;;;;2.40;1.20;;;21.90;99.90;;;;;;5381578;26;19996;-52
2024/05/03 05:11:10;;;;;;;1.90;1.08;;;21.90;99.90;;;;;;5381971;26;20000;-52
2024/05/03 05:13:36;;;;;;;3.65;1.98;;;21.90;99.90;;;;;;5381635;26;20321;-52
2024/05/03 05:16:02;;;;;;;4.68;1.25;;;21.90;99.90;;;;;;5381462;26;20340;-52
2024/05/03 05:18:27;;;;;;;2.55;1.05;;;21.80;99.90;;;;;;5409599;26;20447;-51
2024/05/03 05:23:37;;;;;;;3.03;2.25;;;21.80;99.90;;;;;;5381322;26;20506;-52
2024/05/03 05:26:03;;;;;;;3.72;1.40;;;21.90;99.90;;;;;;5381191;26;20012;-51
2024/05/03 05:28:29;;;;;;;3.00;1.10;;;21.90;99.90;;;;;;5381416;26;20007;-52
2024/05/03 05:30:55;;;;;;;2.03;1.15;;;21.80;99.90;;;;;;5379761;26;20069;-52
2024/05/03 05:33:21;;;;;;;2.13;1.30;;;21.90;99.90;;;;;;5381056;26;20034;-51
2024/05/03 05:35:47;;;;;;;2.45;1.50;;;21.80;99.90;;;;;;5379444;26;20465;-51
2024/05/03 05:38:13;;;;;;;3.00;1.27;;;21.80;99.90;;;;;;5380964;26;20008;-52
2024/05/03 05:40:39;;;;;;;2.33;1.23;;;21.80;99.90;;;;;;5381069;26;20070;-52
2024/05/03 05:43:04;;;;;;;2.67;1.20;;;21.80;99.90;;;;;;5380724;26;20011;-52
2024/05/03 05:45:30;;;;;;;3.45;1.55;;;21.80;99.90;;;;;;5380635;26;20007;-52
2024/05/03 05:47:56;;;;;;;2.90;1.42;;;21.80;99.90;;;;;;5380361;26;20297;-52
2024/05/03 05:50:22;;;;;;;3.28;1.30;;;21.80;99.90;;;;;;5380474;26;20011;-53
2024/05/03 05:52:48;;;;;;;4.30;2.30;;;21.80;99.90;;;;;;5380427;26;19996;-52
2024/05/03 05:55:13;;;;;;;2.90;1.65;;;21.80;99.90;;;;;;5380817;26;19996;-52
2024/05/03 05:57:39;;;;;;;3.95;1.67;;;21.80;99.90;;;;;;5380489;26;20000;-52
2024/05/03 06:00:07;;;;;;;2.80;1.50;;;21.80;99.90;;;;;;5380699;26;20000;-52
2024/05/03 06:02:36;;;;;;;3.92;1.75;;;21.80;99.90;;;;;;5380672;26;20077;-52
2024/05/03 06:05:02;;;;;;;4.15;1.90;;;21.80;99.90;;;;;;5408449;26;20029;-52
2024/05/03 06:07:27;;;;;;;3.03;1.60;;;21.80;99.90;;;;;;5408518;26;20000;-52
2024/05/03 06:09:53;;;;;;;3.95;1.88;;;21.80;99.90;;;;;;5380638;26;20007;-52
2024/05/03 06:12:19;;;;;;;6.13;2.47;;;21.80;99.90;;;;;;5380371;26;20000;-53
2024/05/03 06:14:45;;;;;;;5.68;2.17;;;21.80;99.90;;;;;;5380398;26;19996;-52
2024/05/03 06:17:11;;;;;;;3.92;2.10;;;21.80;99.90;;;;;;5380534;26;20006;-52
2024/05/03 06:19:36;;;;;;;3.33;2.10;;;21.80;99.90;;;;;;5408748;26;20435;-52
2024/05/03 06:22:04;;;;;;;4.22;2.08;;;21.80;99.90;;;;;;5380350;26;20012;-51
2024/05/03 06:24:30;;;;;;;3.80;2.13;;;21.80;99.90;;;;;;5380638;26;20012;-52
2024/05/03 06:26:56;;;;;;;4.25;2.15;;;21.80;99.90;;;;;;5380436;26;19996;-53
2024/05/03 06:29:23;;;;;;;3.83;2.25;;;21.80;99.90;;;;;;5380277;26;20077;-52
2024/05/03 06:31:49;;;;;;;4.68;2.42;;;21.80;99.90;;;;;;5380877;26;19996;-51
2024/05/03 06:34:15;;;;;;;5.00;1.85;;;21.80;99.90;;;;;;5387348;26;20007;-52
2024/05/03 06:36:41;;;;;;;6.07;2.35;;;21.80;99.90;;;;;;5387249;26;19996;-52
2024/05/03 06:39:07;;;;;;;4.18;2.13;;;21.80;99.90;;;;;;5387584;26;20000;-52
2024/05/03 06:41:33;;;;;;;6.00;2.15;;;21.80;99.90;;;;;;5387500;26;20615;-52
2024/05/03 06:43:59;;;;;;;4.03;2.45;;;21.80;99.90;;;;;;5387762;26;20356;-52
2024/05/03 06:46:26;;;;;;;5.03;2.40;;;21.80;99.90;;;;;;5387227;26;20383;-52
2024/05/03 06:48:52;;;;;;;5.78;2.55;;;21.80;99.90;;;;;;5414710;26;20281;-52
2024/05/03 06:51:18;;;;;;;5.47;2.40;;;21.80;99.90;;;;;;5386923;26;20356;-52
2024/05/03 06:53:47;;;;;;;3.80;2.20;;;21.80;99.90;;;;;;5387269;26;20160;-52
2024/05/03 06:56:13;;;;;;;4.95;2.22;;;21.80;99.90;;;;;;5387458;26;20443;-52
2024/05/03 06:58:39;;;;;;;5.10;1.77;;;21.80;99.90;;;;;;5385152;26;19996;-53
2024/05/03 07:01:09;;;;;;;4.82;2.20;;;21.80;99.90;;;;;;5386668;26;20360;-52
2024/05/03 07:03:37;;;;;;;5.05;2.63;;;21.80;99.90;;;;;;5386792;26;19996;-52
2024/05/03 07:06:03;;;;;;;3.45;2.00;;;21.80;99.90;;;;;;5387387;26;20028;-53
2024/05/03 07:08:28;;;;;;;5.82;2.80;;;21.90;99.90;;;;;;5415319;26;20343;-52
2024/05/03 07:10:54;;;;;;;4.28;2.45;;;21.80;99.90;;;;;;5386818;26;20069;-52
2024/05/03 07:13:20;;;;;;;4.47;2.38;;;21.80;99.90;;;;;;5387095;26;19996;-52
2024/05/03 07:15:46;;;;;;;4.22;1.88;;;21.90;99.90;;;;;;5387139;26;20136;-52
2024/05/03 07:18:12;;;;;;;4.90;2.22;;;21.80;99.90;;;;;;5387084;26;20015;-54
2024/05/03 07:20:38;;;;;;;4.18;2.08;;;21.80;99.90;;;;;;5387033;26;20000;-52
2024/05/03 07:23:08;;;;;;;5.28;1.83;;;21.80;99.90;;;;;;5387343;26;20462;-52
2024/05/03 07:25:37;;;;;;;4.20;1.70;;;21.80;99.90;;;;;;5387271;26;20012;-52
2024/05/03 07:28:03;;;;;;;5.55;2.30;;;21.80;99.90;;;;;;5415235;26;20000;-53
2024/05/03 07:30:29;;;;;;;3.25;2.10;;;21.90;99.90;;;;;;5415102;26;20000;-53
2024/05/03 07:32:55;;;;;;;3.58;2.00;;;21.90;99.90;;;;;;5386995;26;20000;-52
2024/05/03 07:35:21;;;;;;;4.95;1.67;;;21.90;99.90;;;;;;5386950;26;20069;-52
2024/05/03 07:37:47;;;;;;;2.30;1.63;;;21.90;99.90;;;;;;5386540;26;20004;-52
2024/05/03 07:40:13;;;;;;;3.45;2.10;;;21.90;99.90;;;;;;5386996;26;20011;-52
2024/05/03 07:42:39;;;;;;;3.60;2.13;;;21.90;99.90;;;;;;5413493;26;20070;-52
2024/05/03 07:45:05;;;;;;;5.85;2.20;;;21.90;99.90;;;;;;5381982;26;19996;-52
2024/05/03 07:47:31;;;;;;;4.65;2.00;;;21.90;99.90;;;;;;5382526;26;20481;-52
2024/05/03 07:49:57;;;;;;;3.35;2.25;;;21.90;99.90;;;;;;5380817;26;20000;-52
2024/05/03 07:52:26;;;;;;;6.18;1.98;;;21.90;99.90;;;;;;5382948;26;20321;-53
2024/05/03 07:54:54;;;;;;;3.38;1.63;;;21.90;99.90;;;;;;5382547;26;20445;-53
2024/05/03 07:57:20;;;;;;;3.63;2.25;;;21.90;99.90;;;;;;5382474;26;20007;-52
2024/05/03 07:59:45;;;;;;;4.45;1.75;;;21.90;99.90;;;;;;5382368;26;19996;-53
2024/05/03 08:02:11;;;;;;;4.00;1.90;;;21.90;99.90;;;;;;5382612;26;20341;-53
2024/05/03 08:04:37;;;;;;;4.80;2.13;;;21.90;99.90;;;;;;5410560;26;19996;-53
2024/05/03 08:07:03;;;;;;;3.47;1.77;;;21.90;99.90;;;;;;5380788;26;20360;-53
2024/05/03 08:09:29;;;;;;;2.65;1.63;;;21.90;99.90;;;;;;5410229;26;20007;-52
2024/05/03 08:11:56;;;;;;;4.05;1.65;;;21.90;99.90;;;;;;5382315;26;20081;-52
2024/05/03 08:14:22;;;;;;;4.93;2.45;;;21.90;99.90;;;;;;5382138;26;20004;-52
2024/05/03 08:16:48;;;;;;;3.97;1.95;;;21.90;99.90;;;;;;5382295;26;20428;-52
2024/05/03 08:19:14;;;;;;;3.65;1.95;;;21.90;99.90;;;;;;5382181;26;20066;-52
2024/05/03 08:21:42;;;;;;;3.95;1.98;;;21.90;99.90;;;;;;5382146;26;20443;-51
2024/05/03 08:24:08;;;;;;;3.15;1.88;;;21.90;99.90;;;;;;5410404;26;20000;-52
2024/05/03 08:26:34;;;;;;;6.15;2.63;;;21.90;99.90;;;;;;5382587;26;20395;-52
2024/05/03 08:28:59;;;;;;;3.55;2.33;;;21.90;99.90;;;;;;5382346;26;20007;-52
2024/05/03 08:31:25;;;;;;;3.90;1.85;;;21.90;99.90;;;;;;5382246;26;20011;-52
2024/05/03 08:33:51;;;;;;;4.70;2.22;;;21.90;99.90;;;;;;5382068;26;20100;-52
2024/05/03 08:36:17;;;;;;;4.20;1.95;;;21.90;99.90;;;;;;5382086;26;20000;-52
2024/05/03 08:38:43;;;;;;;2.25;1.60;;;21.90;99.90;;;;;;5381966;26;19996;-52
2024/05/03 08:41:10;;;;;;;3.65;2.60;;;21.90;99.90;;;;;;5382026;26;19996;-52
2024/05/03 08:43:42;;;;;;;5.43;1.90;;;21.90;99.90;;;;;;5381847;26;19996;-51
2024/05/03 08:46:12;;;;;;;4.60;2.40;;;21.90;99.90;;;;;;5382254;26;20456;-53
2024/05/03 08:48:47;;;;;;;4.00;2.20;;;21.90;99.90;;;;;;5382056;26;20325;-52
2024/05/03 08:51:17;;;;;;;3.67;2.05;;;21.90;99.90;;;;;;5381618;26;20000;-52
2024/05/03 08:53:58;;;;;;;3.42;1.80;;;21.90;99.90;;;;;;5381668;26;20007;-52
2024/05/03 08:56:24;;;;;;;2.47;1.80;;;21.90;99.90;;;;;;5381264;26;20074;-52
2024/05/03 08:58:52;;;;;;;3.33;2.00;;;21.90;99.90;;;;;;5381674;26;20007;-52
2024/05/03 09:01:19;;;;;;;3.72;2.20;;;21.90;99.90;;;;;;5381586;26;19996;-52
2024/05/03 09:03:46;;;;;;;4.43;2.17;;;21.90;99.90;;;;;;5409806;26;20357;-52
2024/05/03 09:06:13;;;;;;;5.78;2.78;;;21.90;99.90;;;;;;5381804;26;20424;-52
2024/05/03 09:08:49;;;;;;;4.50;2.72;;;21.90;99.90;;;;;;5381963;26;19996;-51
2024/05/03 09:11:20;;;;;;;4.40;2.33;;;21.90;99.90;;;;;;5381726;26;20068;-53
2024/05/03 09:13:52;;;;;;;3.67;2.58;;;21.90;99.90;;;;;;5381468;26;20086;-52
2024/05/03 09:16:21;;;;;;;4.05;2.10;;;21.90;99.90;;;;;;5381631;26;20007;-52
2024/05/03 09:18:48;;;;;;;3.78;2.38;;;21.90;99.90;;;;;;5381263;26;20004;-52
2024/05/03 09:21:14;;;;;;;4.95;2.30;;;22.00;99.90;;;;;;5381717;26;20080;-52
2024/05/03 09:23:40;;;;;;;4.10;2.13;;;22.00;99.90;;;;;;5381486;26;20007;-52
2024/05/03 09:26:06;;;;;;;3.30;2.38;;;21.90;99.90;;;;;;5381431;26;20007;-53
2024/05/03 09:28:38;;;;;;;3.08;1.90;;;21.90;99.90;;;;;;5381578;26;20008;-52
2024/05/03 09:31:04;;;;;;;5.32;3.08;;;21.90;99.90;;;;;;5381375;26;20008;-52
2024/05/03 09:33:34;;;;;;;3.97;2.17;;;22.00;99.90;;;;;;5381217;26;20004;-52
2024/05/03 09:35:59;;;;;;;3.47;2.42;;;21.90;99.90;;;;;;5381103;26;20000;-52
2024/05/03 09:38:25;;;;;;;4.85;2.47;;;22.00;99.90;;;;;;5380852;26;20000;-52
2024/05/03 09:40:51;;;;;;;5.55;3.30;;;22.00;99.90;;;;;;5381390;26;20012;-52
2024/05/03 09:43:19;;;;;;;5.40;2.45;;;22.00;99.90;;;;;;5381134;26;20436;-52
2024/05/03 09:45:50;;;;;;;3.00;2.40;;;22.00;99.90;;;;;;5381186;26;19996;-52
2024/05/03 09:48:26;;;;;;;4.05;2.60;;;22.00;99.90;;;;;;5380897;26;20402;-52
2024/05/03 09:50:57;;;;;;;6.38;2.90;;;22.00;99.90;;;;;;5381198;26;20104;-52
2024/05/03 09:53:26;;;;;;;4.75;2.40;;;22.00;99.90;;;;;;5381219;26;20026;-52
2024/05/03 09:56:09;;;;;;;3.60;2.55;;;22.00;99.90;;;;;;5379346;26;20036;-52
2024/05/03 09:58:45;;;;;;;3.80;2.88;;;22.00;99.90;;;;;;5380639;26;20000;-52
2024/05/03 10:01:33;;;;;;;6.82;3.28;;;22.00;99.90;;;;;;5381082;26;20004;-52
2024/05/03 10:04:01;;;;;;;5.53;3.05;;;22.00;99.90;;;;;;5381006;26;20453;-52
2024/05/03 10:06:30;;;;;;;5.10;3.13;;;22.00;99.90;;;;;;5379724;26;20070;-52
2024/05/03 10:08:57;;;;;;;4.40;3.03;;;22.00;99.90;;;;;;5380776;26;19996;-53
2024/05/03 10:11:23;;;;;;;5.47;3.00;;;22.00;99.90;;;;;;5380703;26;20012;-52
2024/05/03 10:13:50;;;;;;;5.18;3.10;;;22.10;99.90;;;;;;5378761;26;19996;-52
2024/05/03 10:16:19;;;;;;;4.47;2.90;;;22.00;99.90;;;;;;5380471;26;20015;-52
2024/05/03 10:18:45;;;;;;;5.05;3.17;;;22.00;99.90;;;;;;5380622;26;19997;-52
2024/05/03 10:21:29;;;;;;;5.65;2.53;;;22.10;99.90;;;;;;5380740;26;19997;-52
2024/05/03 10:23:59;;;;;;;4.70;2.88;;;22.10;99.90;;;;;;5380696;26;19996;-52
2024/05/03 10:26:27;;;;;;;4.97;3.38;;;22.10;99.90;;;;;;5407921;26;20004;-52
2024/05/03 10:29:00;;;;;;;6.72;3.47;;;22.10;99.90;;;;;;5379592;26;20008;-54
2024/05/03 10:31:29;;;;;;;7.35;3.53;;;22.10;99.90;;;;;;5379388;26;20000;-55
2024/05/03 10:33:56;;;;;;;7.88;3.03;;;22.10;99.90;;;;;;5379361;26;20343;-55
2024/05/03 10:36:25;;;;;;;9.75;3.70;;;22.10;99.90;;;;;;5379586;26;20004;-55
2024/05/03 10:38:52;;;;;;;5.80;3.20;;;22.10;99.90;;;;;;5379367;26;20000;-54
2024/05/03 10:41:18;;;;;;;6.45;3.83;;;22.10;99.90;;;;;;5373303;26;20074;-54
2024/05/03 10:43:44;;;;;;;7.53;3.92;;;22.20;99.90;;;;;;5380339;26;20016;-52
2024/05/03 10:46:10;;;;;;;5.90;3.13;;;22.10;99.90;;;;;;5377588;26;20074;-52
2024/05/03 10:48:37;;;;;;;7.35;3.33;;;22.20;99.90;;;;;;5379088;26;20004;-52
2024/05/03 10:51:04;;;;;;;9.38;2.55;;;22.20;99.90;;;;;;5379332;26;20333;-52
2024/05/03 10:53:33;;;;;;;5.60;2.72;;;22.20;99.90;;;;;;5379661;26;20000;-52
2024/05/03 10:56:00;;;;;;;5.55;2.78;;;22.20;99.90;;;;;;5379574;26;20032;-52
2024/05/03 10:58:26;;;;;;;8.70;3.23;;;22.20;99.90;;;;;;5379395;26;20358;-52
2024/05/03 11:00:56;;;;;;;6.30;3.08;;;22.30;99.90;;;;;;5379233;26;20233;-53
2024/05/03 11:03:22;;;;;;;6.50;2.88;;;22.20;99.90;;;;;;5379747;26;20040;-53
2024/05/03 11:05:48;;;;;;;6.13;3.42;;;22.30;99.90;;;;;;5379764;26;20070;-52
2024/05/03 11:08:15;;;;;;;7.68;3.20;;;22.30;99.90;;;;;;5379524;26;20000;-52
2024/05/03 11:10:41;;;;;;;8.40;2.72;;;22.30;99.90;;;;;;5378619;26;20009;-54
2024/05/03 11:13:07;;;;;;;5.93;3.28;;;22.30;99.90;;;;;;5378704;26;20000;-53
2024/05/03 11:15:36;;;;;;;10.50;2.78;;;22.30;99.90;;;;;;5377067;26;20471;-52
2024/05/03 11:18:05;;;;;;;9.52;3.42;;;22.40;99.90;;;;;;5379813;26;20004;-54
2024/05/03 11:20:31;;;;;;;8.80;3.08;;;22.30;99.90;;;;;;5382382;26;20018;-53
2024/05/03 11:23:10;;;;;;;5.35;2.72;;;22.40;99.90;;;;;;5380463;26;20408;-53
2024/05/03 11:25:46;;;;;;;4.55;2.70;;;22.40;99.90;;;;;;5377723;26;20098;-53
2024/05/03 11:28:12;;;;;;;5.70;2.30;;;22.40;99.90;;;;;;5382093;26;20361;-54
2024/05/03 11:30:38;;;;;;;6.40;2.08;;;22.40;99.90;;;;;;5382642;26;20012;-53
2024/05/03 11:33:04;;;;;;;8.23;2.20;;;22.50;99.90;;;;;;5382645;26;20020;-53
2024/05/03 11:35:30;;;;;;;4.40;2.72;;;22.50;99.90;;;;;;5376755;26;20004;-53
2024/05/03 11:37:56;;;;;;;7.15;3.10;;;22.50;99.90;;;;;;5373371;26;20474;-53
2024/05/03 11:40:22;;;;;;;6.97;2.30;;;22.50;99.90;;;;;;5380299;26;20282;-53
2024/05/03 11:42:48;;;;;;;6.90;2.72;;;22.50;99.90;;;;;;5381496;26;20019;-53
2024/05/03 11:45:18;;;;;;;5.70;2.65;;;22.50;99.90;;;;;;5381061;26;20408;-52
2024/05/03 11:47:44;;;;;;;4.28;2.33;;;22.50;99.90;;;;;;5379527;26;20000;-53
2024/05/03 11:50:09;;;;;;;4.38;2.40;;;22.60;99.90;;;;;;5380911;26;20455;-53
2024/05/03 11:52:35;;;;;;;5.18;2.35;;;22.60;99.90;;;;;;5381117;26;20078;-53
2024/05/03 11:55:01;;;;;;;9.00;2.72;;;22.60;99.90;;;;;;5381590;26;20020;-53
2024/05/03 11:57:29;;;;;;;7.38;2.35;;;22.60;99.90;;;;;;5372555;26;19997;-52
2024/05/03 11:59:54;;;;;;;6.32;2.13;;;22.60;99.90;;;;;;5381633;26;20044;-52
2024/05/03 12:02:20;;;;;;;5.10;2.25;;;22.70;99.90;;;;;;5391993;26;20011;-52
2024/05/03 12:04:46;;;;;;;10.20;1.98;;;22.70;99.90;;;;;;5388369;26;20050;-52
2024/05/03 12:07:12;;;;;;;4.70;2.00;;;22.60;99.90;;;;;;5386390;26;20027;-53
2024/05/03 12:09:38;;;;;;;4.50;2.15;;;22.70;99.90;;;;;;5409323;26;20014;-52
2024/05/03 12:12:04;;;;;;;4.22;1.88;;;22.70;99.90;;;;;;5382982;26;20363;-52
2024/05/03 12:14:30;;;;;;;7.60;2.22;;;22.70;99.90;;;;;;5383740;26;20395;-53
2024/05/03 12:16:56;;;;;;;7.13;1.80;;;22.80;99.90;;;;;;5388384;26;20008;-52
2024/05/03 12:19:21;;;;;;;2.58;1.85;;;22.80;99.90;;;;;;5380499;26;20019;-52
2024/05/03 12:21:47;;;;;;;7.93;2.20;;;22.80;99.90;;;;;;5403351;26;20004;-52
2024/05/03 12:24:13;;;;;;;8.02;2.20;;;22.80;99.90;;;;;;5374290;26;20074;-52
2024/05/03 12:26:39;;;;;;;4.55;1.67;;;22.80;99.90;;;;;;5380983;26;20030;-52
2024/05/03 12:29:04;;;;;;;5.68;1.48;;;22.80;99.90;;;;;;5380157;26;20000;-53
2024/05/03 12:31:30;;;;;;;5.78;1.67;;;22.80;99.90;;;;;;5380410;26;20032;-53
2024/05/03 12:33:59;;;;;;;6.00;2.05;;;22.80;99.90;;;;;;5411217;26;20462;-53
2024/05/03 12:36:25;;;;;;;4.97;1.92;;;22.90;99.90;;;;;;5380160;26;20004;-53
2024/05/03 12:38:54;;;;;;;7.05;1.80;;;22.90;99.90;;;;;;5380360;26;20008;-53
2024/05/03 12:41:20;;;;;;;2.75;1.63;;;22.90;99.90;;;;;;5380149;26;20000;-52
2024/05/03 12:43:46;;;;;;;9.80;2.35;;;22.90;99.90;;;;;;5380091;26;20026;-52
2024/05/03 12:46:12;;;;;;;6.05;1.55;;;22.90;99.90;;;;;;5378625;26;20015;-52
2024/05/03 12:48:38;;;;;;;6.05;1.95;;;23.00;99.90;;;;;;5380072;26;20468;-53